Hotevilla, AZ

5:37 AM MST on August 21, 2014 (GMT -0700)
Winslow-Lindbergh Regional | Change Station
CLOSE
Current Station
Airport
Location: Winslow,
Elevation: 4882 ft
Nearby Weather Stations

Elev 4882 ft 35.03 °N, 110.72 °W | Updated 41 minutes ago

Clear
Clear
61 °F
Feels Like 61 °F
N
0
Wind Variable Wind from North

Today
High -- | Low -- °F
--% Chance of Precip.
Yesterday
High -- | Low -- °F
Precip. -- in
5:46 AM 7:04 PM
Waning Crescent, 14% visible
Pressure 29.94 in
Visibility 10.0 miles
Clouds Clear
Dew Point 56 °F
Humidity 83%
Rainfall 0.00 in
Snow Depth Not available.
UV 0 out of 12
Pollen 4.50 out of 12
Air Quality Not available.
Flu Activity Not available.
METAR KINW 211156Z AUTO 00000KT 10SM CLR 16/13 A3014 RMK AO2 SLP139 T01610133 10194 20156 51002

More Conditions Fewer Conditions

Pressure 29.94 in
Visibility 10.0 miles
Clouds Clear
Dew Point 56 °F
Humidity 83%
Rainfall 0.00 in
Snow Depth Not available.
UV 0 out of 12
Pollen 4.50 out of 12
Air Quality Not available.
Flu Activity Not available.
METAR KINW 211156Z AUTO 00000KT 10SM CLR 16/13 A3014 RMK AO2 SLP139 T01610133 10194 20156 51002

More Conditions Fewer Conditions

10-Day Weather Forecast

Almanac

Astronomy

Aug. 21, 2014 Rise Set
Actual Time 5:46 AM MST 7:04 PM MST
Civil Twilight 5:19 AM MST 7:31 PM MST
Nautical Twilight 4:47 AM MST 8:03 PM MST
Astronomical Twilight 4:13 AM MST 8:36 PM MST
Moon 2:22 AM MST 4:33 PM MST
Length of Visible Light 14h 12m
Length of Day
13h 18m
Tomorrow will be 2m 5s shorter.
Waning Crescent, 14% of the Moon is Illuminated
Today
Waning Crescent
Aug 25
New
Sep 2
First Quarter
Sep 8
Full
Sep 15
Last Quarter

Today's Extremes

State Highs State Lows

Community

WunderPhotos

Upload Photos

1,745,892 photos uploaded!

WunderBlogs® & News

Nearby

Snow Depth

Station Depth Elevation
Snowslide Canyon 1 in 9730 ft
Mormon Mountain 0 in 7500 ft
White Horse Lake 0 in 7180 ft
Promontory 0 in 7930 ft
Heber 0 in 7640 ft

Earthquake Activity

City Distance Mag. Time & Date
No recent earthquake activity has been reported nearby.
Minimum magnitude displayed is 2.5.

Coastal Water Temperatures

Place Temperature
No Stations Reporting

Nearby Weather Stations